首页
METAR-TAF:

METAR-TAF

机场 :

拿骚, 巴哈马

林丁平德林国际机场

纬度: 25-03N, 经度: 077-28W, 海拔: 3米

当前天气观测

该预报发布于54分钟前的06:00 UTC
静风
温度 18°C
湿度 83%
气压 1023 hPa
能见度10公里或以上
散云层高于2000英尺
散云层高于8000英尺
多云层高于20000英尺

METAR: MYNN 200600Z COR 00000KT 9999 SCT020 SCT080 BKN200 18/15 A3021

时间: 01:54 (06:54 UTC)

预报

该预报发布于2小时和24分钟前的04:30 UTC
预报有效从20日的 06点(UTC)到 21日的 06点(UTC)
风速10节,风向
能见度10公里或以上
少量云层高于2000英尺
散云层高于3000英尺
多云层高于25000英尺
成为
从 20日的 16点(UTC)到 20日的 18点(UTC)
风速15节,风向

TAF: MYNN 200430Z 2006/2106 08010KT 9999 FEW020 SCT030 BKN250 BECMG 2016/2018 09015KT

超过4000个机场的气象观测和天气预报(METAR&TAF报告)。

可查询的气象台以黄色和红色小点在地图上表示。

将鼠标移到小点上方,可查看气象台名称。

然后点击查看天气观测和预报。

如需切换地图:点击带黑十字的绿色按钮放大地图;点击带横线的绿色按钮缩小地图;或者点击绿色箭头查看邻近地区的地图。


METAR-TAF: